Date,TemperatureHighF,TemperatureAvgF,TemperatureLowF,DewpointHighF,DewpointAvgF,DewpointLowF,HumidityHigh,HumidityAvg,HumidityLow,PressureMaxIn,PressureMinIn,WindSpeedMaxMPH,WindSpeedAvgMPH,GustSpeedMaxMPH,PrecipitationSumIn
2013-3-1,37,28,21,16,12,5,64,52,37,30.16,30.05,3,1,3,0.00
2013-3-2,42,25,14,15,8,3,62,48,29,30.16,30.03,7,1,7,0.00
2013-3-3,44,25,10,12,5,-1,61,45,20,30.04,29.96,3,0,4,0.00
2013-3-4,38,27,14,16,11,1,63,52,40,30.01,29.95,3,0,5,0.00
2013-3-5,32,29,25,23,18,13,76,64,56,30.04,29.86,3,1,5,0.00
2013-3-6,40,30,23,24,19,11,72,62,50,30.19,30.04,4,1,7,0.00
2013-3-7,48,29,14,20,13,5,67,53,28,30.29,30.18,3,0,4,0.00
2013-3-8,47,32,19,25,18,9,68,57,40,30.31,30.14,6,1,8,0.00
2013-3-9,39,35,32,30,26,22,77,70,66,30.14,29.71,4,1,7,0.00
2013-3-10,39,37,32,32,30,24,77,74,71,29.77,29.63,3,1,5,0.00
2013-3-11,38,33,29,28,25,20,77,72,66,29.65,29.48,5,1,9,0.00
2013-3-12,37,30,24,23,19,12,74,63,47,29.91,29.64,4,2,12,0.00
2013-3-13,41,26,20,14,12,7,69,56,32,30.16,29.91,5,1,9,0.00
2013-3-14,44,30,16,24,16,6,71,57,32,30.16,29.91,5,1,6,0.00
2013-3-15,43,34,29,31,26,20,76,71,61,29.91,29.76,3,0,5,0.00
2013-3-16,45,29,20,21,14,9,74,55,34,30.00,29.77,6,1,8,0.00
2013-3-17,40,25,13,12,7,0,61,47,26,30.17,29.93,4,1,5,0.00
2013-3-18,37,27,20,26,18,9,72,67,60,29.93,29.46,4,0,5,0.00
2013-3-19,41,24,16,12,8,3,67,50,29,29.88,29.52,9,3,16,0.00
2013-3-20,35,20,10,5,1,-4,52,44,26,29.94,29.87,9,3,12,0.00
2013-3-21,47,24,11,15,6,-1,60,46,25,29.94,29.89,5,1,10,0.00
2013-3-22,52,31,13,19,11,2,61,46,25,29.95,29.90,4,0,8,0.00
2013-3-23,53,35,24,24,18,12,65,52,29,30.03,29.95,3,0,3,0.00
2013-3-24,38,33,30,22,20,19,66,58,47,29.98,29.76,4,1,5,0.00
2013-3-25,39,32,24,22,19,14,72,58,46,30.02,29.79,3,1,6,0.00
2013-3-26,48,37,30,26,21,18,61,52,40,30.14,30.02,4,1,7,0.00
2013-3-27,54,40,31,23,21,18,61,48,28,30.20,30.14,5,1,9,0.00
2013-3-28,58,40,24,26,20,15,69,46,24,30.24,30.17,5,1,6,0.00
2013-3-29,60,42,26,27,21,16,68,45,25,30.22,30.10,5,1,5,0.00
2013-3-30,46,40,36,37,28,-100,80,65,55,30.10,29.72,6,1,8,0.00
2013-3-31,51,39,32,36,27,15,77,63,41,29.83,29.61,7,2,14,0.00